sensor_id;sensor_type;location;lat;lon;timestamp;P1;durP1;ratioP1;P2;durP2;ratioP2
40256;SDS011;25977;45.462;9.210;2024-02-21T00:00:51;95.30;;;51.03;;
40256;SDS011;25977;45.462;9.210;2024-02-21T00:03:17;96.82;;;54.03;;
40256;SDS011;25977;45.462;9.210;2024-02-21T00:05:43;94.07;;;48.78;;
40256;SDS011;25977;45.462;9.210;2024-02-21T00:08:09;91.82;;;51.50;;
40256;SDS011;25977;45.462;9.210;2024-02-21T00:10:35;94.35;;;52.72;;
40256;SDS011;25977;45.462;9.210;2024-02-21T00:13:01;88.85;;;49.60;;
40256;SDS011;25977;45.462;9.210;2024-02-21T00:15:26;99.20;;;52.20;;
40256;SDS011;25977;45.462;9.210;2024-02-21T00:17:52;98.00;;;52.60;;
40256;SDS011;25977;45.462;9.210;2024-02-21T00:20:18;93.90;;;50.50;;
40256;SDS011;25977;45.462;9.210;2024-02-21T00:22:44;89.53;;;48.33;;
40256;SDS011;25977;45.462;9.210;2024-02-21T00:25:10;101.22;;;52.80;;
40256;SDS011;25977;45.462;9.210;2024-02-21T00:27:36;99.68;;;53.05;;
40256;SDS011;25977;45.462;9.210;2024-02-21T00:30:02;99.32;;;50.30;;
40256;SDS011;25977;45.462;9.210;2024-02-21T00:32:28;104.30;;;52.35;;
40256;SDS011;25977;45.462;9.210;2024-02-21T00:35:00;96.75;;;50.50;;
40256;SDS011;25977;45.462;9.210;2024-02-21T00:37:27;102.88;;;51.58;;
40256;SDS011;25977;45.462;9.210;2024-02-21T00:39:53;93.90;;;50.30;;
40256;SDS011;25977;45.462;9.210;2024-02-21T00:42:19;95.88;;;50.30;;
40256;SDS011;25977;45.462;9.210;2024-02-21T00:44:46;95.40;;;50.17;;
40256;SDS011;25977;45.462;9.210;2024-02-21T00:47:12;98.97;;;52.10;;
40256;SDS011;25977;45.462;9.210;2024-02-21T00:49:37;97.30;;;49.78;;
40256;SDS011;25977;45.462;9.210;2024-02-21T00:52:03;98.45;;;50.83;;
40256;SDS011;25977;45.462;9.210;2024-02-21T00:54:29;97.85;;;52.03;;
40256;SDS011;25977;45.462;9.210;2024-02-21T00:56:54;95.15;;;51.08;;
40256;SDS011;25977;45.462;9.210;2024-02-21T00:59:21;96.95;;;52.70;;
40256;SDS011;25977;45.462;9.210;2024-02-21T01:01:46;94.60;;;49.72;;
40256;SDS011;25977;45.462;9.210;2024-02-21T01:04:12;96.20;;;48.20;;
40256;SDS011;25977;45.462;9.210;2024-02-21T01:06:38;88.68;;;48.83;;
40256;SDS011;25977;45.462;9.210;2024-02-21T01:09:03;98.50;;;46.80;;
40256;SDS011;25977;45.462;9.210;2024-02-21T01:11:29;97.47;;;48.67;;
40256;SDS011;25977;45.462;9.210;2024-02-21T01:13:55;89.97;;;48.78;;
40256;SDS011;25977;45.462;9.210;2024-02-21T01:16:21;90.47;;;46.95;;
40256;SDS011;25977;45.462;9.210;2024-02-21T01:18:46;91.47;;;48.88;;
40256;SDS011;25977;45.462;9.210;2024-02-21T01:21:12;100.68;;;48.42;;
40256;SDS011;25977;45.462;9.210;2024-02-21T01:23:38;92.53;;;46.50;;
40256;SDS011;25977;45.462;9.210;2024-02-21T01:26:03;87.13;;;47.80;;
40256;SDS011;25977;45.462;9.210;2024-02-21T01:28:29;85.68;;;46.75;;
40256;SDS011;25977;45.462;9.210;2024-02-21T01:30:58;89.05;;;47.67;;
40256;SDS011;25977;45.462;9.210;2024-02-21T01:33:23;86.70;;;47.67;;
40256;SDS011;25977;45.462;9.210;2024-02-21T01:35:49;94.35;;;49.03;;
40256;SDS011;25977;45.462;9.210;2024-02-21T01:38:15;87.05;;;47.33;;
40256;SDS011;25977;45.462;9.210;2024-02-21T01:40:41;84.78;;;48.15;;
40256;SDS011;25977;45.462;9.210;2024-02-21T01:43:16;88.07;;;46.15;;
40256;SDS011;25977;45.462;9.210;2024-02-21T01:45:45;82.53;;;44.80;;
40256;SDS011;25977;45.462;9.210;2024-02-21T01:48:14;86.00;;;44.85;;
40256;SDS011;25977;45.462;9.210;2024-02-21T01:50:40;85.47;;;45.38;;
40256;SDS011;25977;45.462;9.210;2024-02-21T01:53:06;89.30;;;46.00;;
40256;SDS011;25977;45.462;9.210;2024-02-21T01:55:32;86.60;;;44.80;;
40256;SDS011;25977;45.462;9.210;2024-02-21T01:57:59;79.22;;;45.42;;
40256;SDS011;25977;45.462;9.210;2024-02-21T02:00:25;81.47;;;42.72;;
40256;SDS011;25977;45.462;9.210;2024-02-21T02:02:51;70.22;;;37.58;;
40256;SDS011;25977;45.462;9.210;2024-02-21T02:05:17;77.60;;;38.65;;
40256;SDS011;25977;45.462;9.210;2024-02-21T02:07:46;75.28;;;40.17;;
40256;SDS011;25977;45.462;9.210;2024-02-21T02:10:11;69.88;;;37.33;;
40256;SDS011;25977;45.462;9.210;2024-02-21T02:12:38;72.53;;;39.50;;
40256;SDS011;25977;45.462;9.210;2024-02-21T02:15:04;76.43;;;38.25;;
40256;SDS011;25977;45.462;9.210;2024-02-21T02:17:30;73.50;;;37.28;;
40256;SDS011;25977;45.462;9.210;2024-02-21T02:19:56;71.82;;;38.58;;
40256;SDS011;25977;45.462;9.210;2024-02-21T02:22:23;67.82;;;39.15;;
40256;SDS011;25977;45.462;9.210;2024-02-21T02:24:57;71.47;;;39.10;;
40256;SDS011;25977;45.462;9.210;2024-02-21T02:27:23;75.43;;;38.72;;
40256;SDS011;25977;45.462;9.210;2024-02-21T02:29:49;79.78;;;40.13;;
40256;SDS011;25977;45.462;9.210;2024-02-21T02:32:15;68.88;;;39.53;;
40256;SDS011;25977;45.462;9.210;2024-02-21T02:34:41;74.35;;;39.17;;
40256;SDS011;25977;45.462;9.210;2024-02-21T02:37:07;80.30;;;42.75;;
40256;SDS011;25977;45.462;9.210;2024-02-21T02:39:33;73.63;;;39.50;;
40256;SDS011;25977;45.462;9.210;2024-02-21T02:41:58;75.40;;;38.65;;
40256;SDS011;25977;45.462;9.210;2024-02-21T02:44:24;67.85;;;36.25;;
40256;SDS011;25977;45.462;9.210;2024-02-21T02:46:50;70.90;;;39.13;;
40256;SDS011;25977;45.462;9.210;2024-02-21T02:49:16;72.95;;;38.67;;
40256;SDS011;25977;45.462;9.210;2024-02-21T02:51:42;74.95;;;38.70;;
40256;SDS011;25977;45.462;9.210;2024-02-21T02:54:08;82.43;;;40.55;;
40256;SDS011;25977;45.462;9.210;2024-02-21T02:56:34;70.85;;;36.78;;
40256;SDS011;25977;45.462;9.210;2024-02-21T02:59:00;72.10;;;36.90;;
40256;SDS011;25977;45.462;9.210;2024-02-21T03:01:25;66.30;;;35.38;;
40256;SDS011;25977;45.462;9.210;2024-02-21T03:03:51;71.53;;;36.75;;
40256;SDS011;25977;45.462;9.210;2024-02-21T03:06:17;70.95;;;35.72;;
40256;SDS011;25977;45.462;9.210;2024-02-21T03:08:43;65.03;;;34.95;;
40256;SDS011;25977;45.462;9.210;2024-02-21T03:11:08;66.97;;;35.33;;
40256;SDS011;25977;45.462;9.210;2024-02-21T03:13:36;66.80;;;35.70;;
40256;SDS011;25977;45.462;9.210;2024-02-21T03:16:01;64.50;;;32.88;;
40256;SDS011;25977;45.462;9.210;2024-02-21T03:18:28;55.83;;;29.75;;
40256;SDS011;25977;45.462;9.210;2024-02-21T03:20:53;57.05;;;30.23;;
40256;SDS011;25977;45.462;9.210;2024-02-21T03:23:19;54.50;;;29.45;;
40256;SDS011;25977;45.462;9.210;2024-02-21T03:25:45;51.90;;;26.10;;
40256;SDS011;25977;45.462;9.210;2024-02-21T03:28:11;48.50;;;26.80;;
40256;SDS011;25977;45.462;9.210;2024-02-21T03:30:36;52.95;;;27.05;;
40256;SDS011;25977;45.462;9.210;2024-02-21T03:33:02;45.15;;;24.77;;
40256;SDS011;25977;45.462;9.210;2024-02-21T03:35:28;43.22;;;23.33;;
40256;SDS011;25977;45.462;9.210;2024-02-21T03:37:54;44.50;;;23.05;;
40256;SDS011;25977;45.462;9.210;2024-02-21T03:40:19;45.42;;;23.85;;
40256;SDS011;25977;45.462;9.210;2024-02-21T03:42:45;47.25;;;23.42;;
40256;SDS011;25977;45.462;9.210;2024-02-21T03:45:11;50.47;;;25.75;;
40256;SDS011;25977;45.462;9.210;2024-02-21T03:47:36;42.50;;;22.83;;
40256;SDS011;25977;45.462;9.210;2024-02-21T03:50:02;51.30;;;24.92;;
40256;SDS011;25977;45.462;9.210;2024-02-21T03:52:28;51.97;;;24.50;;
40256;SDS011;25977;45.462;9.210;2024-02-21T03:54:54;45.85;;;24.75;;
40256;SDS011;25977;45.462;9.210;2024-02-21T03:57:20;53.90;;;26.88;;
40256;SDS011;25977;45.462;9.210;2024-02-21T03:59:46;53.22;;;25.35;;
40256;SDS011;25977;45.462;9.210;2024-02-21T04:02:14;49.30;;;26.48;;
40256;SDS011;25977;45.462;9.210;2024-02-21T04:04:42;47.90;;;25.92;;
40256;SDS011;25977;45.462;9.210;2024-02-21T04:07:13;45.90;;;25.85;;
40256;SDS011;25977;45.462;9.210;2024-02-21T04:09:39;49.88;;;26.40;;
40256;SDS011;25977;45.462;9.210;2024-02-21T04:12:05;50.08;;;25.52;;
40256;SDS011;25977;45.462;9.210;2024-02-21T04:14:33;49.45;;;26.90;;
40256;SDS011;25977;45.462;9.210;2024-02-21T04:16:59;55.38;;;28.83;;
40256;SDS011;25977;45.462;9.210;2024-02-21T04:19:25;49.88;;;25.67;;
40256;SDS011;25977;45.462;9.210;2024-02-21T04:21:51;47.75;;;25.92;;
40256;SDS011;25977;45.462;9.210;2024-02-21T04:24:16;55.47;;;25.40;;
40256;SDS011;25977;45.462;9.210;2024-02-21T04:26:42;53.28;;;26.10;;
40256;SDS011;25977;45.462;9.210;2024-02-21T04:29:08;53.67;;;26.75;;
40256;SDS011;25977;45.462;9.210;2024-02-21T04:31:34;50.25;;;25.20;;
40256;SDS011;25977;45.462;9.210;2024-02-21T04:34:00;47.72;;;25.95;;
40256;SDS011;25977;45.462;9.210;2024-02-21T04:36:25;47.38;;;25.70;;
40256;SDS011;25977;45.462;9.210;2024-02-21T04:38:54;51.08;;;24.83;;
40256;SDS011;25977;45.462;9.210;2024-02-21T04:41:19;52.75;;;26.73;;
40256;SDS011;25977;45.462;9.210;2024-02-21T04:43:48;45.47;;;24.25;;
40256;SDS011;25977;45.462;9.210;2024-02-21T04:46:14;46.45;;;23.33;;
40256;SDS011;25977;45.462;9.210;2024-02-21T04:48:40;50.00;;;23.17;;
40256;SDS011;25977;45.462;9.210;2024-02-21T04:51:06;50.40;;;24.05;;
40256;SDS011;25977;45.462;9.210;2024-02-21T04:53:31;43.22;;;22.25;;
40256;SDS011;25977;45.462;9.210;2024-02-21T04:55:57;47.50;;;22.20;;
40256;SDS011;25977;45.462;9.210;2024-02-21T04:58:23;44.47;;;24.05;;
40256;SDS011;25977;45.462;9.210;2024-02-21T05:00:48;42.53;;;22.75;;
40256;SDS011;25977;45.462;9.210;2024-02-21T05:03:14;44.92;;;22.77;;
40256;SDS011;25977;45.462;9.210;2024-02-21T05:05:40;46.22;;;24.27;;
40256;SDS011;25977;45.462;9.210;2024-02-21T05:08:06;43.58;;;23.10;;
40256;SDS011;25977;45.462;9.210;2024-02-21T05:10:31;44.63;;;21.65;;
40256;SDS011;25977;45.462;9.210;2024-02-21T05:12:57;40.10;;;22.45;;
40256;SDS011;25977;45.462;9.210;2024-02-21T05:15:23;39.38;;;20.75;;
40256;SDS011;25977;45.462;9.210;2024-02-21T05:17:49;48.13;;;21.00;;
40256;SDS011;25977;45.462;9.210;2024-02-21T05:20:14;43.70;;;22.92;;
40256;SDS011;25977;45.462;9.210;2024-02-21T05:22:43;37.85;;;21.75;;
40256;SDS011;25977;45.462;9.210;2024-02-21T05:25:08;40.17;;;20.75;;
40256;SDS011;25977;45.462;9.210;2024-02-21T05:27:34;39.08;;;19.95;;
40256;SDS011;25977;45.462;9.210;2024-02-21T05:30:01;41.30;;;22.15;;
40256;SDS011;25977;45.462;9.210;2024-02-21T05:32:26;42.88;;;21.55;;
40256;SDS011;25977;45.462;9.210;2024-02-21T05:34:52;38.97;;;19.40;;
40256;SDS011;25977;45.462;9.210;2024-02-21T05:37:18;45.17;;;23.13;;
40256;SDS011;25977;45.462;9.210;2024-02-21T05:39:43;40.65;;;21.40;;
40256;SDS011;25977;45.462;9.210;2024-02-21T05:42:09;37.97;;;20.00;;
40256;SDS011;25977;45.462;9.210;2024-02-21T05:44:35;38.97;;;20.80;;
40256;SDS011;25977;45.462;9.210;2024-02-21T05:47:00;42.15;;;21.95;;
40256;SDS011;25977;45.462;9.210;2024-02-21T05:49:26;36.42;;;20.65;;
40256;SDS011;25977;45.462;9.210;2024-02-21T05:51:51;39.00;;;19.00;;
40256;SDS011;25977;45.462;9.210;2024-02-21T05:54:17;37.28;;;18.77;;
40256;SDS011;25977;45.462;9.210;2024-02-21T05:56:46;30.38;;;16.35;;
40256;SDS011;25977;45.462;9.210;2024-02-21T05:59:12;31.60;;;14.75;;
40256;SDS011;25977;45.462;9.210;2024-02-21T06:01:38;29.75;;;14.70;;
40256;SDS011;25977;45.462;9.210;2024-02-21T06:04:04;27.30;;;14.20;;
40256;SDS011;25977;45.462;9.210;2024-02-21T06:06:30;26.45;;;13.00;;
40256;SDS011;25977;45.462;9.210;2024-02-21T06:08:55;24.63;;;13.05;;
40256;SDS011;25977;45.462;9.210;2024-02-21T06:11:22;24.58;;;12.55;;
40256;SDS011;25977;45.462;9.210;2024-02-21T06:13:47;24.83;;;11.75;;
40256;SDS011;25977;45.462;9.210;2024-02-21T06:16:13;25.45;;;12.20;;
40256;SDS011;25977;45.462;9.210;2024-02-21T06:18:39;23.73;;;11.30;;
40256;SDS011;25977;45.462;9.210;2024-02-21T06:21:04;22.50;;;12.80;;
40256;SDS011;25977;45.462;9.210;2024-02-21T06:23:30;27.10;;;11.77;;
40256;SDS011;25977;45.462;9.210;2024-02-21T06:25:56;25.90;;;11.30;;
40256;SDS011;25977;45.462;9.210;2024-02-21T06:28:21;22.60;;;10.60;;
40256;SDS011;25977;45.462;9.210;2024-02-21T06:30:47;23.98;;;12.60;;
40256;SDS011;25977;45.462;9.210;2024-02-21T06:33:13;28.48;;;13.10;;
40256;SDS011;25977;45.462;9.210;2024-02-21T06:35:38;25.25;;;13.10;;
40256;SDS011;25977;45.462;9.210;2024-02-21T06:38:06;30.08;;;16.17;;
40256;SDS011;25977;45.462;9.210;2024-02-21T06:40:32;28.67;;;14.02;;
40256;SDS011;25977;45.462;9.210;2024-02-21T06:43:03;35.15;;;15.82;;
40256;SDS011;25977;45.462;9.210;2024-02-21T06:45:29;29.67;;;15.65;;
40256;SDS011;25977;45.462;9.210;2024-02-21T06:47:55;28.50;;;14.70;;
40256;SDS011;25977;45.462;9.210;2024-02-21T06:50:21;25.05;;;13.95;;
40256;SDS011;25977;45.462;9.210;2024-02-21T06:52:46;27.48;;;13.77;;
40256;SDS011;25977;45.462;9.210;2024-02-21T06:55:12;24.17;;;13.73;;
40256;SDS011;25977;45.462;9.210;2024-02-21T06:57:39;25.98;;;14.48;;
40256;SDS011;25977;45.462;9.210;2024-02-21T07:00:04;30.35;;;15.40;;
40256;SDS011;25977;45.462;9.210;2024-02-21T07:02:33;25.98;;;14.77;;
40256;SDS011;25977;45.462;9.210;2024-02-21T07:04:59;24.40;;;14.15;;
40256;SDS011;25977;45.462;9.210;2024-02-21T07:07:24;31.23;;;15.48;;
40256;SDS011;25977;45.462;9.210;2024-02-21T07:09:50;34.97;;;16.92;;
40256;SDS011;25977;45.462;9.210;2024-02-21T07:12:16;35.75;;;18.02;;
40256;SDS011;25977;45.462;9.210;2024-02-21T07:14:42;34.67;;;16.95;;
40256;SDS011;25977;45.462;9.210;2024-02-21T07:17:08;40.95;;;18.83;;
40256;SDS011;25977;45.462;9.210;2024-02-21T07:19:33;36.35;;;18.13;;
40256;SDS011;25977;45.462;9.210;2024-02-21T07:22:00;41.42;;;19.85;;
40256;SDS011;25977;45.462;9.210;2024-02-21T07:24:26;39.03;;;18.70;;
40256;SDS011;25977;45.462;9.210;2024-02-21T07:26:51;35.80;;;18.90;;
40256;SDS011;25977;45.462;9.210;2024-02-21T07:29:18;39.13;;;20.48;;
40256;SDS011;25977;45.462;9.210;2024-02-21T07:31:44;41.25;;;19.52;;
40256;SDS011;25977;45.462;9.210;2024-02-21T07:34:10;40.92;;;19.83;;
40256;SDS011;25977;45.462;9.210;2024-02-21T07:36:36;38.50;;;20.85;;
40256;SDS011;25977;45.462;9.210;2024-02-21T07:39:05;36.03;;;20.23;;
40256;SDS011;25977;45.462;9.210;2024-02-21T07:41:30;36.67;;;18.92;;
40256;SDS011;25977;45.462;9.210;2024-02-21T07:43:56;36.67;;;19.17;;
40256;SDS011;25977;45.462;9.210;2024-02-21T07:46:22;32.83;;;18.23;;
40256;SDS011;25977;45.462;9.210;2024-02-21T07:48:48;36.58;;;18.95;;
40256;SDS011;25977;45.462;9.210;2024-02-21T07:51:16;35.30;;;19.23;;
40256;SDS011;25977;45.462;9.210;2024-02-21T07:53:43;34.15;;;17.02;;
40256;SDS011;25977;45.462;9.210;2024-02-21T07:56:12;30.35;;;17.23;;
40256;SDS011;25977;45.462;9.210;2024-02-21T07:58:42;41.33;;;18.45;;
40256;SDS011;25977;45.462;9.210;2024-02-21T08:01:08;30.02;;;16.75;;
40256;SDS011;25977;45.462;9.210;2024-02-21T08:03:34;37.08;;;17.60;;
40256;SDS011;25977;45.462;9.210;2024-02-21T08:06:00;27.25;;;16.27;;
40256;SDS011;25977;45.462;9.210;2024-02-21T08:08:25;30.13;;;16.35;;
40256;SDS011;25977;45.462;9.210;2024-02-21T08:10:51;34.75;;;16.63;;
40256;SDS011;25977;45.462;9.210;2024-02-21T08:13:17;40.42;;;17.25;;
40256;SDS011;25977;45.462;9.210;2024-02-21T08:15:43;34.28;;;17.70;;
40256;SDS011;25977;45.462;9.210;2024-02-21T08:18:09;33.75;;;17.48;;
40256;SDS011;25977;45.462;9.210;2024-02-21T08:20:35;26.75;;;15.82;;
40256;SDS011;25977;45.462;9.210;2024-02-21T08:23:01;42.88;;;17.25;;
40256;SDS011;25977;45.462;9.210;2024-02-21T08:25:27;29.45;;;16.13;;
40256;SDS011;25977;45.462;9.210;2024-02-21T08:27:55;33.13;;;15.80;;
40256;SDS011;25977;45.462;9.210;2024-02-21T08:30:22;36.55;;;16.27;;
40256;SDS011;25977;45.462;9.210;2024-02-21T08:32:48;29.10;;;15.18;;
40256;SDS011;25977;45.462;9.210;2024-02-21T08:35:17;30.88;;;15.10;;
40256;SDS011;25977;45.462;9.210;2024-02-21T08:37:43;25.55;;;14.65;;
40256;SDS011;25977;45.462;9.210;2024-02-21T08:40:10;26.45;;;14.43;;
40256;SDS011;25977;45.462;9.210;2024-02-21T08:42:36;28.65;;;17.02;;
40256;SDS011;25977;45.462;9.210;2024-02-21T08:45:03;26.10;;;16.13;;
40256;SDS011;25977;45.462;9.210;2024-02-21T08:47:29;36.50;;;16.05;;
40256;SDS011;25977;45.462;9.210;2024-02-21T08:49:55;30.48;;;17.17;;
40256;SDS011;25977;45.462;9.210;2024-02-21T08:52:21;32.90;;;16.15;;
40256;SDS011;25977;45.462;9.210;2024-02-21T08:54:46;32.72;;;16.95;;
40256;SDS011;25977;45.462;9.210;2024-02-21T08:57:12;27.55;;;16.02;;
40256;SDS011;25977;45.462;9.210;2024-02-21T08:59:39;32.33;;;15.93;;
40256;SDS011;25977;45.462;9.210;2024-02-21T09:02:05;28.25;;;15.25;;
40256;SDS011;25977;45.462;9.210;2024-02-21T09:04:32;28.13;;;15.68;;
40256;SDS011;25977;45.462;9.210;2024-02-21T09:06:58;31.63;;;17.88;;
40256;SDS011;25977;45.462;9.210;2024-02-21T09:09:24;32.47;;;16.90;;
40256;SDS011;25977;45.462;9.210;2024-02-21T09:11:51;30.35;;;16.90;;
40256;SDS011;25977;45.462;9.210;2024-02-21T09:14:17;30.45;;;17.40;;
40256;SDS011;25977;45.462;9.210;2024-02-21T09:16:42;29.90;;;16.35;;
40256;SDS011;25977;45.462;9.210;2024-02-21T09:19:09;29.20;;;16.55;;
40256;SDS011;25977;45.462;9.210;2024-02-21T09:21:39;26.77;;;15.20;;
40256;SDS011;25977;45.462;9.210;2024-02-21T09:24:05;26.85;;;14.48;;
40256;SDS011;25977;45.462;9.210;2024-02-21T09:26:31;24.17;;;14.80;;
40256;SDS011;25977;45.462;9.210;2024-02-21T09:28:57;24.85;;;14.77;;
40256;SDS011;25977;45.462;9.210;2024-02-21T09:31:22;24.58;;;15.30;;
40256;SDS011;25977;45.462;9.210;2024-02-21T09:33:48;25.70;;;15.05;;
40256;SDS011;25977;45.462;9.210;2024-02-21T09:36:14;25.00;;;13.75;;
40256;SDS011;25977;45.462;9.210;2024-02-21T09:38:40;30.88;;;14.20;;
40256;SDS011;25977;45.462;9.210;2024-02-21T09:43:50;29.98;;;15.23;;
40256;SDS011;25977;45.462;9.210;2024-02-21T09:46:19;25.20;;;14.98;;
40256;SDS011;25977;45.462;9.210;2024-02-21T09:51:31;30.48;;;15.23;;
40256;SDS011;25977;45.462;9.210;2024-02-21T09:53:59;25.35;;;14.85;;
40256;SDS011;25977;45.462;9.210;2024-02-21T09:56:26;28.33;;;15.45;;
40256;SDS011;25977;45.462;9.210;2024-02-21T09:58:51;24.15;;;15.07;;
40256;SDS011;25977;45.462;9.210;2024-02-21T10:01:17;27.52;;;14.20;;
40256;SDS011;25977;45.462;9.210;2024-02-21T10:03:43;23.58;;;12.15;;
40256;SDS011;25977;45.462;9.210;2024-02-21T10:06:11;26.20;;;14.38;;
40256;SDS011;25977;45.462;9.210;2024-02-21T10:08:37;27.33;;;14.85;;
40256;SDS011;25977;45.462;9.210;2024-02-21T10:11:02;26.58;;;15.98;;
40256;SDS011;25977;45.462;9.210;2024-02-21T10:13:29;32.08;;;14.77;;
40256;SDS011;25977;45.462;9.210;2024-02-21T10:16:04;28.33;;;15.05;;
40256;SDS011;25977;45.462;9.210;2024-02-21T10:18:31;28.95;;;16.20;;
40256;SDS011;25977;45.462;9.210;2024-02-21T10:21:04;27.45;;;15.10;;
40256;SDS011;25977;45.462;9.210;2024-02-21T10:23:43;33.30;;;16.70;;
40256;SDS011;25977;45.462;9.210;2024-02-21T10:26:16;32.65;;;16.88;;
40256;SDS011;25977;45.462;9.210;2024-02-21T10:28:45;31.17;;;18.45;;
40256;SDS011;25977;45.462;9.210;2024-02-21T10:31:20;35.78;;;17.33;;
40256;SDS011;25977;45.462;9.210;2024-02-21T10:33:57;35.63;;;18.85;;
40256;SDS011;25977;45.462;9.210;2024-02-21T10:36:30;34.60;;;19.02;;
40256;SDS011;25977;45.462;9.210;2024-02-21T10:38:56;38.35;;;21.38;;
40256;SDS011;25977;45.462;9.210;2024-02-21T10:41:22;39.28;;;22.13;;
40256;SDS011;25977;45.462;9.210;2024-02-21T10:43:52;39.78;;;21.25;;
40256;SDS011;25977;45.462;9.210;2024-02-21T10:46:20;34.55;;;19.95;;
40256;SDS011;25977;45.462;9.210;2024-02-21T10:48:47;36.53;;;20.42;;
40256;SDS011;25977;45.462;9.210;2024-02-21T10:51:20;37.80;;;21.35;;
40256;SDS011;25977;45.462;9.210;2024-02-21T10:56:30;39.60;;;22.15;;
40256;SDS011;25977;45.462;9.210;2024-02-21T10:59:00;37.17;;;20.65;;
40256;SDS011;25977;45.462;9.210;2024-02-21T11:01:30;44.28;;;23.00;;
40256;SDS011;25977;45.462;9.210;2024-02-21T11:04:01;44.33;;;23.40;;
40256;SDS011;25977;45.462;9.210;2024-02-21T11:06:28;41.60;;;23.25;;
40256;SDS011;25977;45.462;9.210;2024-02-21T11:09:04;43.28;;;22.38;;
40256;SDS011;25977;45.462;9.210;2024-02-21T11:11:34;47.50;;;25.98;;
40256;SDS011;25977;45.462;9.210;2024-02-21T11:14:03;42.67;;;22.73;;
40256;SDS011;25977;45.462;9.210;2024-02-21T11:16:37;41.75;;;23.23;;
40256;SDS011;25977;45.462;9.210;2024-02-21T11:19:04;45.00;;;24.25;;
40256;SDS011;25977;45.462;9.210;2024-02-21T11:21:35;49.47;;;26.52;;
40256;SDS011;25977;45.462;9.210;2024-02-21T11:24:02;51.00;;;27.13;;
40256;SDS011;25977;45.462;9.210;2024-02-21T11:26:31;53.58;;;26.92;;
40256;SDS011;25977;45.462;9.210;2024-02-21T11:29:00;51.53;;;27.35;;
40256;SDS011;25977;45.462;9.210;2024-02-21T11:34:10;52.17;;;28.67;;
40256;SDS011;25977;45.462;9.210;2024-02-21T11:36:36;49.63;;;28.48;;
40256;SDS011;25977;45.462;9.210;2024-02-21T11:39:11;63.13;;;28.42;;
40256;SDS011;25977;45.462;9.210;2024-02-21T11:41:36;47.78;;;27.52;;
40256;SDS011;25977;45.462;9.210;2024-02-21T11:44:02;65.47;;;29.45;;
40256;SDS011;25977;45.462;9.210;2024-02-21T11:46:29;55.58;;;29.40;;
40256;SDS011;25977;45.462;9.210;2024-02-21T11:48:54;51.10;;;29.67;;
40256;SDS011;25977;45.462;9.210;2024-02-21T11:51:24;56.10;;;29.77;;
40256;SDS011;25977;45.462;9.210;2024-02-21T11:53:53;57.75;;;28.48;;
40256;SDS011;25977;45.462;9.210;2024-02-21T11:56:19;46.17;;;27.42;;
40256;SDS011;25977;45.462;9.210;2024-02-21T11:58:46;49.42;;;28.20;;
40256;SDS011;25977;45.462;9.210;2024-02-21T12:01:13;54.90;;;29.20;;
40256;SDS011;25977;45.462;9.210;2024-02-21T12:03:39;51.95;;;27.95;;
40256;SDS011;25977;45.462;9.210;2024-02-21T12:06:06;57.10;;;30.73;;
40256;SDS011;25977;45.462;9.210;2024-02-21T12:08:42;52.72;;;28.80;;
40256;SDS011;25977;45.462;9.210;2024-02-21T12:11:20;52.13;;;29.13;;
40256;SDS011;25977;45.462;9.210;2024-02-21T12:13:47;56.55;;;30.60;;
40256;SDS011;25977;45.462;9.210;2024-02-21T12:16:24;56.22;;;30.55;;
40256;SDS011;25977;45.462;9.210;2024-02-21T12:18:52;62.13;;;33.58;;
40256;SDS011;25977;45.462;9.210;2024-02-21T12:21:18;57.45;;;29.48;;
40256;SDS011;25977;45.462;9.210;2024-02-21T12:23:44;57.95;;;31.65;;
40256;SDS011;25977;45.462;9.210;2024-02-21T12:26:12;59.67;;;32.28;;
40256;SDS011;25977;45.462;9.210;2024-02-21T12:28:37;57.72;;;29.98;;
40256;SDS011;25977;45.462;9.210;2024-02-21T12:31:03;56.45;;;31.42;;
40256;SDS011;25977;45.462;9.210;2024-02-21T12:33:29;60.15;;;31.98;;
40256;SDS011;25977;45.462;9.210;2024-02-21T12:35:55;55.53;;;30.52;;
40256;SDS011;25977;45.462;9.210;2024-02-21T12:38:21;64.22;;;33.83;;
40256;SDS011;25977;45.462;9.210;2024-02-21T12:40:47;61.30;;;31.90;;
40256;SDS011;25977;45.462;9.210;2024-02-21T12:43:12;61.53;;;32.95;;
40256;SDS011;25977;45.462;9.210;2024-02-21T12:45:38;59.30;;;34.22;;
40256;SDS011;25977;45.462;9.210;2024-02-21T12:48:04;66.50;;;35.25;;
40256;SDS011;25977;45.462;9.210;2024-02-21T12:50:30;59.03;;;32.75;;
40256;SDS011;25977;45.462;9.210;2024-02-21T12:52:56;57.85;;;32.70;;
40256;SDS011;25977;45.462;9.210;2024-02-21T12:55:23;59.58;;;32.05;;
40256;SDS011;25977;45.462;9.210;2024-02-21T12:57:49;63.05;;;33.13;;
40256;SDS011;25977;45.462;9.210;2024-02-21T13:00:15;62.28;;;33.35;;
40256;SDS011;25977;45.462;9.210;2024-02-21T13:02:41;62.85;;;35.30;;
40256;SDS011;25977;45.462;9.210;2024-02-21T13:05:07;61.63;;;33.35;;
40256;SDS011;25977;45.462;9.210;2024-02-21T13:07:33;64.82;;;34.42;;
40256;SDS011;25977;45.462;9.210;2024-02-21T13:09:59;61.17;;;31.20;;
40256;SDS011;25977;45.462;9.210;2024-02-21T13:12:25;62.97;;;33.03;;
40256;SDS011;25977;45.462;9.210;2024-02-21T13:14:55;62.22;;;32.90;;
40256;SDS011;25977;45.462;9.210;2024-02-21T13:17:20;62.00;;;34.83;;
40256;SDS011;25977;45.462;9.210;2024-02-21T13:19:47;64.43;;;33.40;;
40256;SDS011;25977;45.462;9.210;2024-02-21T13:22:13;60.20;;;32.83;;
40256;SDS011;25977;45.462;9.210;2024-02-21T13:24:38;68.80;;;33.78;;
40256;SDS011;25977;45.462;9.210;2024-02-21T13:27:04;52.72;;;30.42;;
40256;SDS011;25977;45.462;9.210;2024-02-21T13:29:30;67.43;;;35.47;;
40256;SDS011;25977;45.462;9.210;2024-02-21T13:31:55;62.22;;;32.30;;
40256;SDS011;25977;45.462;9.210;2024-02-21T13:34:21;59.50;;;31.75;;
40256;SDS011;25977;45.462;9.210;2024-02-21T13:36:47;57.15;;;32.28;;
40256;SDS011;25977;45.462;9.210;2024-02-21T13:39:13;64.18;;;33.38;;
40256;SDS011;25977;45.462;9.210;2024-02-21T13:41:41;74.68;;;32.92;;
40256;SDS011;25977;45.462;9.210;2024-02-21T13:44:07;56.42;;;32.05;;
40256;SDS011;25977;45.462;9.210;2024-02-21T13:46:34;57.28;;;30.95;;
40256;SDS011;25977;45.462;9.210;2024-02-21T13:49:04;61.50;;;32.17;;
40256;SDS011;25977;45.462;9.210;2024-02-21T13:51:34;58.97;;;32.53;;
40256;SDS011;25977;45.462;9.210;2024-02-21T13:54:01;59.80;;;33.00;;
40256;SDS011;25977;45.462;9.210;2024-02-21T13:56:29;60.67;;;32.30;;
40256;SDS011;25977;45.462;9.210;2024-02-21T13:58:55;69.20;;;32.55;;
40256;SDS011;25977;45.462;9.210;2024-02-21T14:01:20;58.10;;;31.98;;
40256;SDS011;25977;45.462;9.210;2024-02-21T14:03:46;58.60;;;33.05;;
40256;SDS011;25977;45.462;9.210;2024-02-21T14:06:12;68.45;;;34.15;;
40256;SDS011;25977;45.462;9.210;2024-02-21T14:08:37;60.58;;;32.60;;
40256;SDS011;25977;45.462;9.210;2024-02-21T14:11:05;62.95;;;33.28;;
40256;SDS011;25977;45.462;9.210;2024-02-21T14:13:31;61.50;;;32.75;;
40256;SDS011;25977;45.462;9.210;2024-02-21T14:15:57;55.30;;;31.15;;
40256;SDS011;25977;45.462;9.210;2024-02-21T14:18:22;64.35;;;32.75;;
40256;SDS011;25977;45.462;9.210;2024-02-21T14:20:48;61.28;;;33.95;;
40256;SDS011;25977;45.462;9.210;2024-02-21T14:23:14;62.03;;;31.70;;
40256;SDS011;25977;45.462;9.210;2024-02-21T14:25:40;56.17;;;30.25;;
40256;SDS011;25977;45.462;9.210;2024-02-21T14:28:07;61.95;;;32.25;;